createdAt,value
2022-10-22T00:00:01.223Z,100932.97
2022-10-22T00:02:27.939Z,100940.00
2022-10-22T00:04:56.971Z,100937.69
2022-10-22T00:07:23.763Z,100939.34
2022-10-22T00:09:50.224Z,100942.38
2022-10-22T00:12:17.198Z,100938.44
2022-10-22T00:14:44.066Z,100946.13
2022-10-22T00:17:11.745Z,100946.91
2022-10-22T00:19:39.211Z,100954.69
2022-10-22T00:22:06.540Z,100955.06
2022-10-22T00:24:34.280Z,100953.81
2022-10-22T00:27:00.924Z,100956.91
2022-10-22T00:29:27.449Z,100957.00
2022-10-22T00:34:25.591Z,100967.34
2022-10-22T00:36:52.616Z,100970.84
2022-10-22T00:39:21.021Z,100966.63
2022-10-22T00:41:49.665Z,100963.88
2022-10-22T00:44:53.299Z,100957.94
2022-10-22T00:47:21.069Z,100963.41
2022-10-22T00:49:48.107Z,100967.69
2022-10-22T00:52:14.758Z,100966.13
2022-10-22T00:54:42.413Z,100963.00
2022-10-22T00:57:09.420Z,100955.59
2022-10-22T00:59:37.675Z,100957.13
2022-10-22T01:02:04.248Z,100957.19
2022-10-22T01:04:30.695Z,100966.25
2022-10-22T01:06:57.155Z,100959.63
2022-10-22T01:09:29.629Z,100961.56
2022-10-22T01:12:13.685Z,100974.34
2022-10-22T01:15:00.577Z,100959.88
2022-10-22T01:18:00.531Z,100969.66
2022-10-22T01:20:38.978Z,100963.69
2022-10-22T01:23:33.373Z,100963.28
2022-10-22T01:26:38.402Z,100960.13
2022-10-22T01:29:15.773Z,100964.31
2022-10-22T01:31:47.929Z,100962.38
2022-10-22T01:34:18.194Z,100955.31
2022-10-22T01:36:46.870Z,100965.44
2022-10-22T01:39:15.385Z,100962.69
2022-10-22T01:41:45.437Z,100966.09
2022-10-22T01:44:29.481Z,100956.72
2022-10-22T01:47:18.341Z,100953.53
2022-10-22T01:49:53.836Z,100970.72
2022-10-22T01:52:51.734Z,100959.34
2022-10-22T01:55:27.472Z,100960.47
2022-10-22T01:58:30.443Z,100957.31
2022-10-22T02:01:03.155Z,100959.97
2022-10-22T02:03:38.121Z,100960.75
2022-10-22T02:06:12.905Z,100953.00
2022-10-22T02:08:39.621Z,100945.53
2022-10-22T02:11:06.473Z,100953.69
2022-10-22T02:13:58.511Z,100953.22
2022-10-22T02:16:31.695Z,100943.84
2022-10-22T02:19:02.538Z,100948.88
2022-10-22T02:21:29.687Z,100948.16
2022-10-22T02:23:56.455Z,100946.16
2022-10-22T02:26:32.065Z,100949.16
2022-10-22T02:29:06.739Z,100945.09
2022-10-22T02:31:37.564Z,100945.09
2022-10-22T02:34:10.196Z,100964.50
2022-10-22T02:36:38.810Z,100955.59
2022-10-22T02:39:07.992Z,100958.69
2022-10-22T02:41:35.258Z,100947.78
2022-10-22T02:44:03.023Z,100950.88
2022-10-22T02:46:29.437Z,100951.66
2022-10-22T02:48:55.860Z,100951.56
2022-10-22T02:51:22.314Z,100948.16
2022-10-22T02:53:48.751Z,100961.31
2022-10-22T02:56:15.251Z,100958.97
2022-10-22T02:58:41.800Z,100959.38
2022-10-22T03:01:10.283Z,100963.25
2022-10-22T03:03:38.909Z,100957.09
2022-10-22T03:06:05.544Z,100975.41
2022-10-22T03:08:32.173Z,100957.09
2022-10-22T03:10:58.658Z,100962.56
2022-10-22T03:13:25.173Z,100958.97
2022-10-22T03:15:51.620Z,100958.59
2022-10-22T03:18:18.257Z,100967.22
2022-10-22T03:20:44.700Z,100966.84
2022-10-22T03:23:14.874Z,100962.97
2022-10-22T03:25:43.451Z,100964.56
2022-10-22T03:28:13.259Z,100958.59
2022-10-22T03:30:39.706Z,100967.88
2022-10-22T03:33:06.136Z,100974.53
2022-10-22T03:35:36.520Z,100968.38
2022-10-22T03:38:02.973Z,100968.78
2022-10-22T03:40:29.568Z,100979.31
2022-10-22T03:42:56.078Z,100981.19
2022-10-22T03:45:22.501Z,100981.13
2022-10-22T03:47:48.923Z,100978.34
2022-10-22T03:50:15.569Z,100980.19
2022-10-22T03:52:41.975Z,100981.72
2022-10-22T03:55:09.176Z,100994.13
2022-10-22T03:57:35.941Z,100987.44
2022-10-22T04:00:05.124Z,100988.53
2022-10-22T04:02:31.547Z,100987.88
2022-10-22T04:04:57.941Z,100996.13
2022-10-22T04:07:24.379Z,100997.31
2022-10-22T04:09:50.804Z,100997.69
2022-10-22T04:12:17.979Z,100989.09
2022-10-22T04:14:44.382Z,100991.66
2022-10-22T04:17:10.908Z,100989.66
2022-10-22T04:19:37.395Z,100999.66
2022-10-22T04:22:04.147Z,100998.97
2022-10-22T04:24:32.002Z,100989.75
2022-10-22T04:26:58.750Z,101001.84
2022-10-22T04:29:25.521Z,100996.06
2022-10-22T04:31:52.412Z,100996.84
2022-10-22T04:34:18.827Z,100993.34
2022-10-22T04:36:45.287Z,100995.88
2022-10-22T04:39:11.788Z,100999.25
2022-10-22T04:41:39.343Z,100996.09
2022-10-22T04:44:09.892Z,101007.84
2022-10-22T04:46:39.987Z,101009.88
2022-10-22T04:49:06.429Z,101007.22
2022-10-22T04:51:33.203Z,101004.06
2022-10-22T04:53:59.805Z,101011.88
2022-10-22T04:56:29.492Z,101012.22
2022-10-22T04:58:58.786Z,101008.63
2022-10-22T05:01:27.999Z,101001.44
2022-10-22T05:03:56.224Z,101012.34
2022-10-22T05:06:24.215Z,101025.47
2022-10-22T05:08:59.140Z,101022.59
2022-10-22T05:11:31.528Z,101019.50
2022-10-22T05:13:59.602Z,101024.16
2022-10-22T05:16:26.554Z,101019.50
2022-10-22T05:18:53.411Z,101018.50
2022-10-22T05:21:21.472Z,101014.78
2022-10-22T05:23:49.671Z,101026.22
2022-10-22T05:26:19.482Z,101021.28
2022-10-22T05:28:47.768Z,101021.22
2022-10-22T05:31:20.474Z,101023.13
2022-10-22T05:33:47.194Z,101019.69
2022-10-22T05:36:19.456Z,101021.22
2022-10-22T05:38:46.295Z,101023.81
2022-10-22T05:41:21.526Z,101024.84
2022-10-22T05:43:48.238Z,101028.88
2022-10-22T05:46:21.969Z,101029.84
2022-10-22T05:48:57.136Z,101034.59
2022-10-22T05:51:24.492Z,101039.38
2022-10-22T05:53:56.338Z,101046.97
2022-10-22T05:56:23.328Z,101031.50
2022-10-22T05:58:50.459Z,101050.13
2022-10-22T06:01:20.252Z,101054.28
2022-10-22T06:03:47.711Z,101058.38
2022-10-22T06:06:21.554Z,101056.16
2022-10-22T06:08:50.380Z,101051.97
2022-10-22T06:11:18.731Z,101047.72
2022-10-22T06:13:46.069Z,101067.59
2022-10-22T06:16:13.379Z,101065.66
2022-10-22T06:18:40.101Z,101056.78
2022-10-22T06:21:12.341Z,101066.53
2022-10-22T06:23:39.609Z,101061.50
2022-10-22T06:26:07.121Z,101078.69
2022-10-22T06:28:34.286Z,101082.66
2022-10-22T06:31:01.774Z,101084.59
2022-10-22T06:33:29.595Z,101083.88
2022-10-22T06:35:56.105Z,101088.59
2022-10-22T06:38:22.595Z,101085.97
2022-10-22T06:40:49.084Z,101092.19
2022-10-22T06:43:15.553Z,101101.94
2022-10-22T06:45:42.015Z,101105.47
2022-10-22T06:48:08.498Z,101112.91
2022-10-22T06:50:35.317Z,101117.66
2022-10-22T06:53:01.754Z,101113.38
2022-10-22T06:55:28.549Z,101111.44
2022-10-22T06:57:55.649Z,101127.06
2022-10-22T07:00:22.455Z,101127.47
2022-10-22T07:02:56.426Z,101122.13
2022-10-22T07:05:25.578Z,101131.16
2022-10-22T07:07:52.005Z,101137.03
2022-10-22T07:10:18.604Z,101140.22
2022-10-22T07:12:45.106Z,101144.13
2022-10-22T07:15:11.780Z,101140.31
2022-10-22T07:20:10.382Z,101144.78
2022-10-22T07:22:36.884Z,101147.59
2022-10-22T07:25:07.186Z,101148.81
2022-10-22T07:27:33.957Z,101154.75
2022-10-22T07:30:01.443Z,101161.06
2022-10-22T07:32:28.220Z,101159.91
2022-10-22T07:34:54.664Z,101163.16
2022-10-22T07:37:22.096Z,101168.66
2022-10-22T07:39:49.638Z,101166.81
2022-10-22T07:42:16.337Z,101176.56
2022-10-22T07:44:42.847Z,101176.19
2022-10-22T07:47:09.286Z,101178.56
2022-10-22T07:49:35.703Z,101181.38
2022-10-22T07:52:02.117Z,101195.44
2022-10-22T07:54:28.642Z,101196.66
2022-10-22T07:56:55.073Z,101196.38
2022-10-22T07:59:21.528Z,101201.88
2022-10-22T08:01:47.982Z,101200.34
2022-10-22T08:04:14.482Z,101196.94
2022-10-22T08:06:44.515Z,101204.03
2022-10-22T08:09:13.712Z,101207.63
2022-10-22T08:11:40.187Z,101212.72
2022-10-22T08:14:06.637Z,101212.38
2022-10-22T08:16:33.095Z,101217.09
2022-10-22T08:18:59.535Z,101212.50
2022-10-22T08:21:26.755Z,101226.19
2022-10-22T08:23:53.385Z,101227.41
2022-10-22T08:26:20.037Z,101226.28
2022-10-22T08:28:46.507Z,101228.66
2022-10-22T08:31:13.625Z,101231.00
2022-10-22T08:33:40.163Z,101232.16
2022-10-22T08:36:07.722Z,101240.78
2022-10-22T08:38:35.255Z,101241.66
2022-10-22T08:41:19.841Z,101254.16
2022-10-22T08:44:07.349Z,101258.44
2022-10-22T08:46:47.368Z,101246.38
2022-10-22T08:49:27.315Z,101256.50
2022-10-22T08:51:55.827Z,101258.50
2022-10-22T08:54:33.496Z,101261.72
2022-10-22T08:57:09.057Z,101264.09
2022-10-22T08:59:47.136Z,101270.72
2022-10-22T09:02:42.709Z,101268.78
2022-10-22T09:05:20.224Z,101264.88
2022-10-22T09:07:50.184Z,101268.78
2022-10-22T09:10:24.819Z,101284.41
2022-10-22T09:12:51.452Z,101285.28
2022-10-22T09:15:19.262Z,101277.50
2022-10-22T09:17:52.383Z,101296.69
2022-10-22T09:20:40.760Z,101295.97
2022-10-22T09:23:31.636Z,101297.19
2022-10-22T09:25:59.573Z,101302.69
2022-10-22T09:28:26.069Z,101298.09
2022-10-22T09:30:52.596Z,101305.97
2022-10-22T09:33:27.601Z,101308.84
2022-10-22T09:36:03.209Z,101303.06
2022-10-22T09:38:38.998Z,101317.16
2022-10-22T09:41:05.882Z,101312.19
2022-10-22T09:43:33.548Z,101323.16
2022-10-22T09:46:02.612Z,101320.47
2022-10-22T09:48:34.480Z,101323.22
2022-10-22T09:51:17.725Z,101320.56
2022-10-22T09:53:47.092Z,101320.66
2022-10-22T09:56:24.787Z,101327.06
2022-10-22T09:58:51.901Z,101325.59
2022-10-22T10:01:23.715Z,101340.53
2022-10-22T10:03:50.345Z,101333.53
2022-10-22T10:06:22.463Z,101333.16
2022-10-22T10:08:49.777Z,101336.38
2022-10-22T10:11:29.063Z,101338.38
2022-10-22T10:14:14.337Z,101344.75
2022-10-22T10:16:43.042Z,101355.38
2022-10-22T10:19:24.676Z,101348.78
2022-10-22T10:22:22.076Z,101359.00
2022-10-22T10:25:13.036Z,101345.75
2022-10-22T10:27:57.995Z,101359.16
2022-10-22T10:30:24.893Z,101362.13
2022-10-22T10:32:57.293Z,101376.69
2022-10-22T10:35:30.051Z,101377.59
2022-10-22T10:38:16.694Z,101365.84
2022-10-22T10:40:54.415Z,101371.66
2022-10-22T10:43:30.195Z,101375.25
2022-10-22T10:46:25.719Z,101375.28
2022-10-22T10:49:26.157Z,101380.56
2022-10-22T10:51:55.516Z,101372.69
2022-10-22T10:54:25.101Z,101382.56
2022-10-22T10:57:03.106Z,101375.91
2022-10-22T10:59:32.165Z,101384.22
2022-10-22T11:02:36.043Z,101381.16
2022-10-22T11:05:28.453Z,101383.53
2022-10-22T11:08:20.395Z,101373.78
2022-10-22T11:10:48.953Z,101380.03
2022-10-22T11:13:18.747Z,101389.03
2022-10-22T11:16:22.953Z,101390.88
2022-10-22T11:19:22.962Z,101395.94
2022-10-22T11:22:24.547Z,101403.47
2022-10-22T11:24:59.104Z,101403.88
2022-10-22T11:27:33.423Z,101406.59
2022-10-22T11:30:11.794Z,101404.28
2022-10-22T11:32:41.576Z,101415.72
2022-10-22T11:35:25.893Z,101400.44
2022-10-22T11:37:55.541Z,101406.63
2022-10-22T11:40:34.274Z,101403.47
2022-10-22T11:43:25.435Z,101406.75
2022-10-22T11:46:00.780Z,101408.44
2022-10-22T11:48:28.766Z,101402.94
2022-10-22T11:51:00.978Z,101409.28
2022-10-22T11:53:38.898Z,101399.16
2022-10-22T11:56:10.217Z,101401.13
2022-10-22T11:58:44.809Z,101416.50
2022-10-22T12:01:11.260Z,101420.81
2022-10-22T12:03:51.375Z,101418.06
2022-10-22T12:06:21.439Z,101416.91
2022-10-22T12:08:54.425Z,101403.66
2022-10-22T12:11:40.246Z,101405.56
2022-10-22T12:14:22.898Z,101417.59
2022-10-22T12:16:57.857Z,101422.13
2022-10-22T12:19:39.360Z,101420.06
2022-10-22T12:22:19.510Z,101414.16
2022-10-22T12:24:49.479Z,101419.50
2022-10-22T12:27:22.846Z,101417.56
2022-10-22T12:29:57.597Z,101422.28
2022-10-22T12:32:32.654Z,101430.53
2022-10-22T12:35:07.924Z,101426.19
2022-10-22T12:37:38.437Z,101425.31
2022-10-22T12:40:18.283Z,101428.88
2022-10-22T12:42:55.022Z,101415.75
2022-10-22T12:45:23.195Z,101431.88
2022-10-22T12:48:21.797Z,101422.38
2022-10-22T12:50:54.369Z,101426.88
2022-10-22T12:53:37.849Z,101430.66
2022-10-22T12:56:07.742Z,101429.00
2022-10-22T12:58:39.523Z,101418.66
2022-10-22T13:01:06.592Z,101427.88
2022-10-22T13:03:41.630Z,101422.78
2022-10-22T13:06:20.531Z,101428.31
2022-10-22T13:09:06.202Z,101435.13
2022-10-22T13:12:04.738Z,101427.28
2022-10-22T13:14:38.056Z,101431.56
2022-10-22T13:17:17.817Z,101430.72
2022-10-22T13:19:53.305Z,101423.28
2022-10-22T13:22:40.723Z,101413.97
2022-10-22T13:25:17.141Z,101418.66
2022-10-22T13:27:45.067Z,101413.13
2022-10-22T13:30:19.831Z,101421.31
2022-10-22T13:32:51.887Z,101416.34
2022-10-22T13:35:24.165Z,101413.56
2022-10-22T13:37:50.721Z,101411.44
2022-10-22T13:40:17.807Z,101416.03
2022-10-22T13:42:44.386Z,101417.69
2022-10-22T13:45:12.421Z,101419.72
2022-10-22T13:47:39.623Z,101420.44
2022-10-22T13:50:15.820Z,101417.97
2022-10-22T13:52:45.972Z,101423.34
2022-10-22T13:55:33.695Z,101428.44
2022-10-22T13:58:14.017Z,101426.88
2022-10-22T14:00:43.966Z,101432.00
2022-10-22T14:03:13.336Z,101425.00
2022-10-22T14:05:39.765Z,101433.97
2022-10-22T14:08:12.878Z,101438.22
2022-10-22T14:10:39.443Z,101435.03
2022-10-22T14:13:17.023Z,101435.44
2022-10-22T14:15:46.546Z,101438.91
2022-10-22T14:18:16.967Z,101427.09
2022-10-22T14:20:43.606Z,101434.13
2022-10-22T14:23:20.419Z,101436.03
2022-10-22T14:25:47.555Z,101432.88
2022-10-22T14:28:14.573Z,101437.56
2022-10-22T14:30:41.157Z,101445.00
2022-10-22T14:33:34.172Z,101438.72
2022-10-22T14:36:01.369Z,101443.75
2022-10-22T14:38:28.683Z,101447.22
2022-10-22T14:40:55.211Z,101446.47
2022-10-22T14:43:25.156Z,101446.09
2022-10-22T14:45:51.799Z,101446.47
2022-10-22T14:50:47.593Z,101453.53
2022-10-22T14:53:14.882Z,101453.53
2022-10-22T14:55:42.915Z,101450.38
2022-10-22T14:58:10.056Z,101461.75
2022-10-22T15:00:36.904Z,101464.19
2022-10-22T15:03:04.437Z,101467.00
2022-10-22T15:05:31.255Z,101467.44
2022-10-22T15:07:59.205Z,101472.16
2022-10-22T15:10:26.738Z,101469.47
2022-10-22T15:12:53.424Z,101471.84
2022-10-22T15:15:22.633Z,101472.72
2022-10-22T15:17:49.744Z,101470.06
2022-10-22T15:20:16.294Z,101470.53
2022-10-22T15:22:43.173Z,101466.94
2022-10-22T15:25:10.225Z,101471.41
2022-10-22T15:27:36.718Z,101474.81
2022-10-22T15:30:03.909Z,101472.38
2022-10-22T15:32:32.264Z,101486.06
2022-10-22T15:34:58.788Z,101489.16
2022-10-22T15:37:25.256Z,101486.78
2022-10-22T15:39:51.706Z,101496.94
2022-10-22T15:42:21.001Z,101489.41
2022-10-22T15:44:47.426Z,101489.22
2022-10-22T15:47:14.017Z,101488.28
2022-10-22T15:49:41.842Z,101485.81
2022-10-22T15:52:09.102Z,101486.09
2022-10-22T15:54:35.781Z,101481.22
2022-10-22T15:57:03.898Z,101486.59
2022-10-22T15:59:30.661Z,101481.00
2022-10-22T16:01:57.084Z,101480.94
2022-10-22T16:04:23.497Z,101477.84
2022-10-22T16:06:54.934Z,101478.97
2022-10-22T16:09:24.314Z,101476.31
2022-10-22T16:14:24.060Z,101488.84
2022-10-22T16:16:52.792Z,101491.03
2022-10-22T16:19:21.189Z,101491.56
2022-10-22T16:21:50.759Z,101490.63
2022-10-22T16:24:17.786Z,101484.72
2022-10-22T16:26:44.367Z,101488.13
2022-10-22T16:29:12.527Z,101493.81
2022-10-22T16:31:40.642Z,101495.19
2022-10-22T16:34:07.637Z,101495.41
2022-10-22T16:36:36.149Z,101502.31
2022-10-22T16:39:03.719Z,101503.03
2022-10-22T16:41:35.115Z,101498.06
2022-10-22T16:44:05.293Z,101502.41
2022-10-22T16:46:33.317Z,101503.47
2022-10-22T16:48:59.887Z,101501.84
2022-10-22T16:51:27.876Z,101503.16
2022-10-22T16:53:56.137Z,101502.94
2022-10-22T16:56:23.574Z,101497.84
2022-10-22T16:58:52.516Z,101496.13
2022-10-22T17:01:21.039Z,101499.94
2022-10-22T17:03:47.673Z,101498.19
2022-10-22T17:06:14.795Z,101502.41
2022-10-22T17:08:42.134Z,101503.84
2022-10-22T17:11:17.185Z,101508.88
2022-10-22T17:13:45.767Z,101521.22
2022-10-22T17:16:15.505Z,101513.72
2022-10-22T17:18:43.242Z,101515.13
2022-10-22T17:21:11.500Z,101509.84
2022-10-22T17:23:38.433Z,101516.44
2022-10-22T17:26:07.182Z,101519.88
2022-10-22T17:28:36.226Z,101533.44
2022-10-22T17:31:08.908Z,101534.66
2022-10-22T17:33:36.414Z,101541.53
2022-10-22T17:36:08.946Z,101539.84
2022-10-22T17:38:35.593Z,101536.25
2022-10-22T17:41:04.387Z,101534.22
2022-10-22T17:43:35.611Z,101538.00
2022-10-22T17:46:14.865Z,101539.06
2022-10-22T17:48:41.464Z,101545.09
2022-10-22T17:51:09.486Z,101541.34
2022-10-22T17:53:36.111Z,101539.06
2022-10-22T17:56:06.952Z,101522.41
2022-10-22T17:58:33.419Z,101529.25
2022-10-22T18:00:59.909Z,101535.50
2022-10-22T18:03:27.869Z,101534.38
2022-10-22T18:05:55.242Z,101536.94
2022-10-22T18:08:24.057Z,101542.72
2022-10-22T18:10:50.557Z,101552.16
2022-10-22T18:13:17.031Z,101551.59
2022-10-22T18:15:43.463Z,101558.00
2022-10-22T18:18:10.031Z,101556.34
2022-10-22T18:20:36.494Z,101549.03
2022-10-22T18:23:03.619Z,101549.81
2022-10-22T18:25:31.772Z,101548.16
2022-10-22T18:27:58.338Z,101540.66
2022-10-22T18:30:24.808Z,101552.69
2022-10-22T18:32:51.780Z,101551.91
2022-10-22T18:35:18.298Z,101557.00
2022-10-22T18:37:44.926Z,101551.66
2022-10-22T18:40:14.652Z,101557.34
2022-10-22T18:42:41.845Z,101554.53
2022-10-22T18:45:08.974Z,101545.56
2022-10-22T18:47:39.833Z,101557.06
2022-10-22T18:50:06.713Z,101557.06
2022-10-22T18:52:33.733Z,101562.97
2022-10-22T18:55:00.154Z,101572.28
2022-10-22T18:57:26.609Z,101563.53
2022-10-22T18:59:54.699Z,101567.31
2022-10-22T19:02:23.680Z,101561.44
2022-10-22T19:04:50.117Z,101553.94
2022-10-22T19:07:16.597Z,101554.03
2022-10-22T19:09:43.079Z,101543.38
2022-10-22T19:12:09.631Z,101545.66
2022-10-22T19:14:36.371Z,101548.38
2022-10-22T19:17:02.940Z,101542.25
2022-10-22T19:19:29.375Z,101544.88
2022-10-22T19:21:56.610Z,101535.69
2022-10-22T19:24:23.066Z,101536.38
2022-10-22T19:26:49.930Z,101533.66
2022-10-22T19:29:18.804Z,101532.97
2022-10-22T19:31:45.859Z,101532.03
2022-10-22T19:34:12.453Z,101530.91
2022-10-22T19:36:38.944Z,101533.28
2022-10-22T19:39:06.125Z,101526.34
2022-10-22T19:41:33.241Z,101530.91
2022-10-22T19:44:00.822Z,101528.31
2022-10-22T19:46:29.217Z,101529.47
2022-10-22T19:48:57.300Z,101528.66
2022-10-22T19:51:29.833Z,101537.94
2022-10-22T19:54:04.642Z,101529.09
2022-10-22T19:56:32.031Z,101529.56
2022-10-22T19:58:58.815Z,101538.88
2022-10-22T20:01:25.824Z,101533.97
2022-10-22T20:03:52.699Z,101533.16
2022-10-22T20:06:20.006Z,101542.97
2022-10-22T20:08:46.778Z,101532.63
2022-10-22T20:11:28.397Z,101535.81
2022-10-22T20:13:55.252Z,101535.81
2022-10-22T20:16:24.293Z,101528.34
2022-10-22T20:18:52.514Z,101533.78
2022-10-22T20:21:19.799Z,101538.09
2022-10-22T20:23:47.387Z,101538.41
2022-10-22T20:26:14.032Z,101536.38
2022-10-22T20:28:40.492Z,101543.41
2022-10-22T20:31:11.903Z,101541.81
2022-10-22T20:33:38.358Z,101553.50
2022-10-22T20:36:12.821Z,101541.03
2022-10-22T20:38:39.370Z,101550.91
2022-10-22T20:41:09.929Z,101547.47
2022-10-22T20:43:36.379Z,101546.25
2022-10-22T20:46:03.478Z,101548.06
2022-10-22T20:48:31.343Z,101550.31
2022-10-22T20:50:59.545Z,101546.13
2022-10-22T20:53:27.381Z,101545.59
2022-10-22T20:55:58.947Z,101538.78
2022-10-22T20:58:27.064Z,101540.28
2022-10-22T21:00:55.137Z,101542.44
2022-10-22T21:03:21.755Z,101544.56
2022-10-22T21:05:48.497Z,101555.91
2022-10-22T21:08:17.916Z,101544.91
2022-10-22T21:10:49.159Z,101546.75
2022-10-22T21:13:16.638Z,101543.69
2022-10-22T21:15:43.227Z,101542.78
2022-10-22T21:18:09.693Z,101552.97
2022-10-22T21:20:36.269Z,101549.00
2022-10-22T21:23:02.736Z,101552.72
2022-10-22T21:25:29.187Z,101567.59
2022-10-22T21:27:55.710Z,101572.94
2022-10-22T21:30:22.173Z,101565.00
2022-10-22T21:32:48.777Z,101560.81
2022-10-22T21:35:15.261Z,101556.50
2022-10-22T21:37:41.895Z,101556.94
2022-10-22T21:40:09.049Z,101549.34
2022-10-22T21:42:35.494Z,101559.63
2022-10-22T21:45:02.052Z,101554.28
2022-10-22T21:47:28.555Z,101551.00
2022-10-22T21:49:57.111Z,101562.69
2022-10-22T21:52:23.838Z,101556.00
2022-10-22T21:54:50.273Z,101558.16
2022-10-22T21:57:16.711Z,101567.91
2022-10-22T21:59:43.114Z,101562.81
2022-10-22T22:02:09.600Z,101563.94
2022-10-22T22:04:36.085Z,101558.38
2022-10-22T22:07:02.526Z,101561.56
2022-10-22T22:09:28.958Z,101557.94
2022-10-22T22:11:56.158Z,101561.56
2022-10-22T22:14:22.635Z,101563.81
2022-10-22T22:16:49.140Z,101556.91
2022-10-22T22:19:15.582Z,101550.19
2022-10-22T22:21:42.230Z,101545.22
2022-10-22T22:24:11.253Z,101545.66
2022-10-22T22:26:37.775Z,101530.53
2022-10-22T22:29:04.226Z,101532.13
2022-10-22T22:31:33.650Z,101527.94
2022-10-22T22:34:08.540Z,101533.84
2022-10-22T22:36:40.822Z,101524.59
2022-10-22T22:39:13.378Z,101525.38
2022-10-22T22:41:40.947Z,101522.22
2022-10-22T22:44:07.428Z,101522.72
2022-10-22T22:46:34.160Z,101515.34
2022-10-22T22:49:00.710Z,101512.25
2022-10-22T22:51:27.325Z,101511.03
2022-10-22T22:53:53.980Z,101525.69
2022-10-22T22:56:23.600Z,101507.53
2022-10-22T22:58:50.418Z,101517.38
2022-10-22T23:01:19.488Z,101516.91
2022-10-22T23:03:49.318Z,101509.53
2022-10-22T23:06:16.183Z,101511.25
2022-10-22T23:08:43.271Z,101511.25
2022-10-22T23:11:13.831Z,101511.69
2022-10-22T23:13:42.083Z,101504.66
2022-10-22T23:16:18.788Z,101503.75
2022-10-22T23:18:46.769Z,101502.16
2022-10-22T23:21:18.772Z,101500.50
2022-10-22T23:23:50.614Z,101499.56
2022-10-22T23:26:22.942Z,101503.56
2022-10-22T23:28:49.577Z,101496.19
2022-10-22T23:31:19.194Z,101503.22
2022-10-22T23:33:46.091Z,101503.88
2022-10-22T23:36:13.138Z,101513.13
2022-10-22T23:38:40.740Z,101506.72
2022-10-22T23:41:07.743Z,101504.25
2022-10-22T23:43:36.135Z,101503.56
2022-10-22T23:46:04.750Z,101494.59
2022-10-22T23:48:31.531Z,101490.56
2022-10-22T23:50:58.094Z,101485.34
2022-10-22T23:53:24.564Z,101463.00
2022-10-22T23:55:51.008Z,101460.28
2022-10-22T23:58:17.458Z,101453.78
